Time;durP1;ratioP1;P1;durP2;ratioP2;P2;SDS_P1;SDS_P2;PMS_P1;PMS_P2;Temp;Humidity;BMP_temperature;BMP_pressure;BME280_temperature;BME280_humidity;BME280_pressure;Samples;Min_cycle;Max_cycle;Signal;HPM_P1;HPM_P2
2023/08/25 00:01:46;;;;;;;7.32;4.10;;;;;;;22.52;56.77;100455.47;4966495;28;20216;-71
2023/08/25 00:04:13;;;;;;;4.03;3.58;;;;;;;22.53;57.22;100448.91;4996602;28;20218;-71
2023/08/25 00:06:39;;;;;;;4.85;3.80;;;;;;;22.52;57.72;100442.00;4977892;28;20219;-71
2023/08/25 00:09:05;;;;;;;5.20;3.73;;;;;;;22.51;57.72;100438.56;4999289;28;20235;-72
2023/08/25 00:11:32;;;;;;;5.13;3.87;;;;;;;22.49;56.74;100434.75;4995611;28;20212;-71
2023/08/25 00:13:59;;;;;;;4.40;4.00;;;;;;;22.46;57.92;100427.50;4996908;28;20573;-72
2023/08/25 00:16:26;;;;;;;7.30;4.07;;;;;;;22.41;59.28;100426.00;4978079;28;20211;-71
2023/08/25 00:18:52;;;;;;;4.83;4.20;;;;;;;22.37;59.56;100430.69;4997506;28;20586;-72
2023/08/25 00:21:18;;;;;;;4.70;4.30;;;;;;;22.33;59.45;100431.91;4996978;28;20211;-71
2023/08/25 00:23:45;;;;;;;5.03;4.03;;;;;;;22.28;60.75;100435.03;4996618;28;20681;-71
2023/08/25 00:26:11;;;;;;;4.97;3.80;;;;;;;22.23;60.98;100428.22;4995054;28;20210;-72
2023/08/25 00:28:38;;;;;;;6.57;4.27;;;;;;;22.19;60.73;100432.88;4994985;28;20241;-72
2023/08/25 00:31:06;;;;;;;5.10;4.70;;;;;;;22.17;61.48;100418.31;4967288;28;20226;-71
2023/08/25 00:33:32;;;;;;;5.37;4.47;;;;;;;22.13;61.86;100409.53;4995501;28;20827;-71
2023/08/25 00:35:58;;;;;;;4.60;4.20;;;;;;;22.10;61.15;100404.97;4976394;28;20743;-71
2023/08/25 00:38:28;;;;;;;5.67;4.63;;;;;;;22.06;60.90;100401.56;4993062;28;20246;-71
2023/08/25 00:40:54;;;;;;;5.30;4.33;;;;;;;22.03;61.13;100399.69;4998456;28;20657;-71
2023/08/25 00:43:21;;;;;;;5.93;4.50;;;;;;;22.00;61.71;100398.56;4963744;28;20214;-71
2023/08/25 00:45:48;;;;;;;4.43;4.03;;;;;;;21.99;63.10;100399.72;4977278;28;20223;-71
2023/08/25 00:48:15;;;;;;;6.87;4.47;;;;;;;21.97;62.35;100399.38;4982503;28;20309;-72
2023/08/25 00:50:42;;;;;;;6.30;4.80;;;;;;;21.94;62.00;100389.44;4975774;28;20218;-72
2023/08/25 00:53:10;;;;;;;4.70;3.90;;;;;;;21.93;61.73;100379.84;4995207;28;21631;-71
2023/08/25 00:55:36;;;;;;;4.90;4.40;;;;;;;21.92;61.73;100380.25;4964844;28;20812;-72
2023/08/25 00:58:05;;;;;;;6.10;4.77;;;;;;;21.91;61.59;100392.19;4973156;28;21465;-71
2023/08/25 01:00:32;;;;;;;4.67;4.27;;;;;;;21.90;61.29;100385.28;4995646;28;20328;-71
2023/08/25 01:03:00;;;;;;;5.67;4.53;;;;;;;21.90;62.88;100394.13;4996136;28;20636;-71
2023/08/25 01:05:28;;;;;;;4.50;4.10;;;;;;;21.89;61.57;100391.81;4969052;28;20294;-71
2023/08/25 01:07:57;;;;;;;4.47;3.97;;;;;;;21.88;62.12;100390.31;4998656;28;20235;-71
2023/08/25 01:10:29;;;;;;;5.67;4.20;;;;;;;21.88;62.54;100387.63;4966522;28;20585;-71
2023/08/25 01:13:04;;;;;;;4.63;4.03;;;;;;;21.87;61.78;100373.41;4996937;28;21706;-72
2023/08/25 01:15:35;;;;;;;4.97;4.00;;;;;;;21.86;62.04;100371.91;4995161;28;20974;-71
2023/08/25 01:18:09;;;;;;;4.47;4.07;;;;;;;21.85;62.56;100370.38;4994954;28;20897;-72
2023/08/25 01:20:39;;;;;;;4.83;3.93;;;;;;;21.85;62.54;100373.06;4965426;28;21443;-72
2023/08/25 01:23:16;;;;;;;4.77;4.30;;;;;;;21.84;61.75;100379.59;4995361;28;20211;-70
2023/08/25 01:25:46;;;;;;;6.90;4.37;;;;;;;21.84;61.75;100363.47;4995436;28;20203;-72
2023/08/25 01:28:12;;;;;;;6.53;4.37;;;;;;;21.84;62.94;100352.69;4976934;28;20246;-71
2023/08/25 01:30:39;;;;;;;6.23;4.43;;;;;;;21.84;62.40;100347.31;4977449;28;20222;-71
2023/08/25 01:33:05;;;;;;;5.57;4.10;;;;;;;21.85;61.54;100353.47;4996869;28;20218;-72
2023/08/25 01:35:40;;;;;;;6.80;4.27;;;;;;;21.86;62.58;100342.31;4994240;28;20735;-72
2023/08/25 01:38:12;;;;;;;5.97;4.07;;;;;;;21.86;62.42;100342.31;4997319;28;20234;-71
2023/08/25 01:40:43;;;;;;;4.80;4.10;;;;;;;21.86;62.30;100333.47;4966629;28;20219;-72
2023/08/25 01:43:14;;;;;;;7.53;4.57;;;;;;;21.85;61.99;100322.00;4965905;28;20709;-71
2023/08/25 01:45:41;;;;;;;5.03;4.43;;;;;;;21.85;61.77;100327.38;4995388;28;20203;-71
2023/08/25 01:48:08;;;;;;;4.73;4.23;;;;;;;21.86;61.60;100311.97;4977165;28;20370;-71
2023/08/25 01:50:36;;;;;;;6.67;4.77;;;;;;;21.86;62.40;100312.75;4976034;28;21354;-71
2023/08/25 01:53:03;;;;;;;4.77;4.37;;;;;;;21.85;62.40;100305.84;4970638;28;20211;-71
2023/08/25 01:55:29;;;;;;;6.10;4.40;;;;;;;21.85;62.24;100299.72;4993748;28;20250;-72
2023/08/25 01:57:57;;;;;;;5.87;4.47;;;;;;;21.85;62.39;100300.47;4966354;28;20231;-71
2023/08/25 02:00:25;;;;;;;4.87;4.20;;;;;;;21.86;61.69;100307.38;4975748;28;20721;-71
2023/08/25 02:02:51;;;;;;;6.77;4.17;;;;;;;21.86;61.27;100299.31;4993860;28;20333;-72
2023/08/25 02:05:18;;;;;;;5.80;4.73;;;;;;;21.88;61.95;100293.53;4995294;28;20210;-71
2023/08/25 02:07:45;;;;;;;6.73;4.77;;;;;;;21.90;61.88;100308.09;4976332;28;20215;-71
2023/08/25 02:10:13;;;;;;;5.67;4.60;;;;;;;21.91;62.28;100316.91;4993945;28;20762;-71
2023/08/25 02:12:39;;;;;;;7.67;4.17;;;;;;;21.92;62.54;100321.09;4975975;28;20561;-71
2023/08/25 02:15:07;;;;;;;4.70;4.20;;;;;;;21.92;62.65;100310.34;4994850;28;20250;-71
2023/08/25 02:17:34;;;;;;;5.13;4.37;;;;;;;21.91;62.09;100306.91;4976558;28;20207;-71
2023/08/25 02:20:04;;;;;;;5.17;4.60;;;;;;;21.91;62.38;100306.13;4982333;28;20216;-72
2023/08/25 02:22:30;;;;;;;5.90;4.13;;;;;;;21.91;62.44;100303.44;4992615;28;20826;-71
2023/08/25 02:24:57;;;;;;;5.30;4.80;;;;;;;21.89;62.50;100309.22;4996485;28;20203;-71
2023/08/25 02:27:23;;;;;;;8.80;4.10;;;;;;;21.89;62.37;100306.53;4965910;28;20211;-71
2023/08/25 02:29:49;;;;;;;6.60;4.70;;;;;;;21.89;62.25;100303.13;4992593;28;20235;-71
2023/08/25 02:32:17;;;;;;;7.37;4.43;;;;;;;21.89;62.30;100301.16;4977458;28;21163;-72
2023/08/25 02:34:44;;;;;;;5.00;4.50;;;;;;;21.88;62.09;100288.91;4977832;28;20243;-71
2023/08/25 02:37:11;;;;;;;6.00;4.87;;;;;;;21.87;63.43;100294.66;4980106;28;20957;-72
2023/08/25 02:39:37;;;;;;;5.70;4.70;;;;;;;21.86;62.89;100293.16;4993703;28;20739;-71
2023/08/25 02:42:04;;;;;;;5.10;4.60;;;;;;;21.85;63.45;100286.28;4974808;28;20846;-71
2023/08/25 02:44:30;;;;;;;6.13;4.80;;;;;;;21.82;63.14;100293.22;4973838;28;20213;-72
2023/08/25 02:46:56;;;;;;;5.17;4.50;;;;;;;21.81;63.11;100286.31;4962927;28;20203;-71
2023/08/25 02:49:23;;;;;;;6.07;4.80;;;;;;;21.80;63.34;100275.97;4973982;28;20241;-72
2023/08/25 02:51:51;;;;;;;4.90;4.40;;;;;;;21.78;63.27;100271.00;4975013;28;20210;-71
2023/08/25 02:54:18;;;;;;;5.77;4.77;;;;;;;21.77;63.26;100268.72;4978804;28;20218;-71
2023/08/25 02:56:44;;;;;;;6.83;4.27;;;;;;;21.75;63.78;100274.53;4998425;28;20229;-72
2023/08/25 02:59:11;;;;;;;6.00;4.77;;;;;;;21.74;64.89;100278.34;4979887;28;20239;-72
2023/08/25 03:01:37;;;;;;;5.10;4.60;;;;;;;21.71;64.16;100270.34;4967311;28;20203;-71
2023/08/25 03:04:04;;;;;;;5.20;4.70;;;;;;;21.67;64.82;100272.31;4997043;28;20773;-72
2023/08/25 03:06:30;;;;;;;6.13;4.50;;;;;;;21.64;65.31;100267.75;4974093;28;20208;-71
2023/08/25 03:08:58;;;;;;;4.70;4.30;;;;;;;21.59;64.97;100260.91;4980561;28;20745;-72
2023/08/25 03:11:25;;;;;;;5.17;4.67;;;;;;;21.54;65.20;100257.91;4967303;28;22032;-72
2023/08/25 03:13:51;;;;;;;4.87;4.47;;;;;;;21.48;65.21;100256.84;4967662;28;20211;-72
2023/08/25 03:16:18;;;;;;;7.57;4.83;;;;;;;21.42;65.36;100256.53;4979430;28;20231;-72
2023/08/25 03:18:45;;;;;;;7.30;5.20;;;;;;;21.35;65.44;100259.34;4964044;28;20406;-72
2023/08/25 03:21:11;;;;;;;5.57;4.87;;;;;;;21.28;64.83;100253.28;4980935;28;20928;-72
2023/08/25 03:23:38;;;;;;;5.43;4.67;;;;;;;21.21;65.02;100251.47;4976206;28;20854;-70
2023/08/25 03:26:06;;;;;;;5.40;4.90;;;;;;;21.15;65.38;100250.41;4978467;28;20279;-72
2023/08/25 03:28:32;;;;;;;7.60;5.10;;;;;;;21.08;65.51;100247.03;4997623;28;20241;-71
2023/08/25 03:30:59;;;;;;;6.63;5.40;;;;;;;21.02;65.63;100243.28;4979102;28;20215;-71
2023/08/25 03:33:25;;;;;;;5.80;4.80;;;;;;;20.95;65.31;100240.69;4971277;28;21575;-72
2023/08/25 03:35:52;;;;;;;10.80;5.50;;;;;;;20.89;65.79;100236.91;4986817;28;20907;-71
2023/08/25 03:38:19;;;;;;;9.00;5.73;;;;;;;20.83;66.22;100233.91;4979320;28;20745;-71
2023/08/25 03:40:46;;;;;;;6.23;5.63;;;;;;;20.78;66.27;100239.72;4997369;28;20218;-71
2023/08/25 03:43:13;;;;;;;7.13;5.30;;;;;;;20.73;66.62;100234.03;4974196;28;21473;-72
2023/08/25 03:45:40;;;;;;;6.80;5.10;;;;;;;20.65;66.82;100238.72;4973485;28;20669;-71
2023/08/25 03:48:06;;;;;;;9.23;4.97;;;;;;;20.59;67.51;100240.31;4980063;28;20969;-70
2023/08/25 03:50:33;;;;;;;5.93;5.33;;;;;;;20.53;67.81;100244.59;4967346;28;22032;-72
2023/08/25 03:52:59;;;;;;;6.83;5.03;;;;;;;20.47;68.07;100238.16;4977240;28;20675;-71
2023/08/25 03:55:25;;;;;;;8.87;5.60;;;;;;;20.41;68.19;100247.03;4979387;28;20785;-71
2023/08/25 03:57:53;;;;;;;6.03;4.83;;;;;;;20.35;68.53;100240.59;4997841;28;21410;-71
2023/08/25 04:00:21;;;;;;;5.87;5.37;;;;;;;20.29;68.77;100236.81;4978175;28;20208;-71
2023/08/25 04:02:48;;;;;;;5.93;5.43;;;;;;;20.23;68.85;100236.47;4997701;28;20219;-72
2023/08/25 04:05:14;;;;;;;6.30;5.70;;;;;;;20.17;69.24;100246.13;4978342;28;20708;-71
2023/08/25 04:07:40;;;;;;;6.63;5.77;;;;;;;20.12;69.63;100254.59;4982966;28;20592;-71
2023/08/25 04:10:08;;;;;;;7.63;5.60;;;;;;;20.07;69.86;100255.00;4978189;28;20222;-71
2023/08/25 04:12:34;;;;;;;6.30;5.70;;;;;;;20.01;70.11;100255.78;4998805;28;20211;-71
2023/08/25 04:15:01;;;;;;;6.27;5.63;;;;;;;19.97;70.74;100255.09;4997311;28;20209;-71
2023/08/25 04:17:30;;;;;;;5.93;5.33;;;;;;;19.92;71.43;100253.56;4977458;28;21238;-72
2023/08/25 04:19:56;;;;;;;7.97;6.20;;;;;;;19.88;71.25;100268.16;4976706;28;20235;-71
2023/08/25 04:22:23;;;;;;;6.63;5.93;;;;;;;19.82;71.61;100262.47;4996471;28;20300;-71
2023/08/25 04:24:50;;;;;;;6.57;5.87;;;;;;;19.78;71.94;100259.06;4966081;28;20223;-71
2023/08/25 04:27:16;;;;;;;7.63;6.83;;;;;;;19.75;71.58;100253.72;4981085;28;20203;-72
2023/08/25 04:29:43;;;;;;;8.33;6.70;;;;;;;19.69;71.79;100252.59;4976173;28;20768;-70
2023/08/25 04:32:11;;;;;;;8.20;6.97;;;;;;;19.66;71.75;100253.41;4971645;28;21604;-71
2023/08/25 04:34:41;;;;;;;6.93;6.27;;;;;;;19.64;71.80;100253.78;4977404;28;20306;-71
2023/08/25 04:37:07;;;;;;;10.20;6.27;;;;;;;19.63;71.80;100254.97;4978428;28;20238;-71
2023/08/25 04:39:34;;;;;;;8.47;6.80;;;;;;;19.61;71.88;100257.25;4980168;28;21340;-71
2023/08/25 04:42:00;;;;;;;6.53;5.83;;;;;;;19.62;71.94;100244.63;4996134;28;20222;-72
2023/08/25 04:44:27;;;;;;;6.37;5.77;;;;;;;19.62;71.63;100244.63;4972878;28;21453;-72
2023/08/25 04:46:53;;;;;;;9.10;6.53;;;;;;;19.62;71.52;100247.31;4976358;28;20919;-72
2023/08/25 04:49:20;;;;;;;7.47;6.70;;;;;;;19.63;71.59;100244.25;4978061;28;20226;-71
2023/08/25 04:51:48;;;;;;;8.13;6.60;;;;;;;19.64;71.27;100245.75;4975510;28;20211;-72
2023/08/25 04:54:15;;;;;;;8.00;6.17;;;;;;;19.66;71.39;100248.78;4967675;28;20219;-71
2023/08/25 04:56:46;;;;;;;7.77;6.50;;;;;;;19.68;71.86;100245.72;4967201;28;20794;-72
2023/08/25 04:59:12;;;;;;;8.10;6.30;;;;;;;19.70;71.07;100240.72;4964664;28;21612;-72
2023/08/25 05:01:39;;;;;;;10.17;6.03;;;;;;;19.74;71.47;100246.84;4974512;28;20203;-73
2023/08/25 05:04:06;;;;;;;7.37;6.67;;;;;;;19.77;71.42;100230.72;4982191;28;20692;-71
2023/08/25 05:06:32;;;;;;;8.20;6.57;;;;;;;19.81;70.79;100230.72;4977370;28;20204;-71
2023/08/25 05:09:01;;;;;;;9.73;6.80;;;;;;;19.85;71.28;100234.09;4979772;28;20265;-71
2023/08/25 05:11:27;;;;;;;6.17;5.57;;;;;;;19.90;71.73;100228.31;4996457;28;21712;-72
2023/08/25 05:13:56;;;;;;;7.33;5.53;;;;;;;19.94;71.76;100229.84;4978174;28;20203;-73
2023/08/25 05:16:23;;;;;;;6.80;5.47;;;;;;;19.99;72.11;100229.41;4962716;28;20227;-71
2023/08/25 05:18:56;;;;;;;8.87;5.73;;;;;;;20.06;71.73;100221.28;4976544;28;20274;-72
2023/08/25 05:21:23;;;;;;;6.80;5.50;;;;;;;20.12;71.60;100232.41;4983286;28;20207;-72
2023/08/25 05:23:53;;;;;;;7.77;5.83;;;;;;;20.18;71.16;100230.78;4978470;28;20202;-71
2023/08/25 05:26:21;;;;;;;6.00;5.20;;;;;;;20.26;71.46;100234.91;4976076;28;20585;-71
2023/08/25 05:28:57;;;;;;;7.63;5.33;;;;;;;20.34;71.60;100231.03;4976034;28;20231;-72
2023/08/25 05:31:24;;;;;;;8.13;5.50;;;;;;;20.43;70.62;100237.44;4994733;28;20568;-72
2023/08/25 05:34:09;;;;;;;7.67;4.97;;;;;;;20.52;71.18;100226.22;4977512;28;20241;-71
2023/08/25 05:36:46;;;;;;;8.87;4.80;;;;;;;20.65;70.32;100222.59;4983142;28;20226;-72
2023/08/25 05:39:13;;;;;;;9.57;5.07;;;;;;;20.73;70.42;100223.28;4984027;28;20422;-72
2023/08/25 05:41:41;;;;;;;6.67;4.90;;;;;;;20.84;70.30;100226.59;4982857;28;20281;-72
2023/08/25 05:44:07;;;;;;;5.43;4.93;;;;;;;20.95;70.71;100232.66;4976673;28;20219;-72
2023/08/25 05:46:33;;;;;;;5.30;4.80;;;;;;;21.06;70.40;100239.38;4996179;28;21661;-72
2023/08/25 05:49:00;;;;;;;6.83;4.60;;;;;;;21.16;69.74;100237.75;4984389;28;20226;-72
2023/08/25 05:51:27;;;;;;;7.13;4.60;;;;;;;21.26;68.98;100237.59;4994974;28;20214;-72
2023/08/25 05:53:54;;;;;;;6.73;4.90;;;;;;;21.40;68.50;100239.31;4976826;28;20789;-72
2023/08/25 05:56:20;;;;;;;6.00;4.83;;;;;;;21.48;68.61;100238.78;4996055;28;20237;-72
2023/08/25 05:58:48;;;;;;;5.67;4.83;;;;;;;21.59;69.28;100242.09;4995557;28;20227;-72
2023/08/25 06:01:14;;;;;;;6.30;4.73;;;;;;;21.71;68.40;100235.41;4994600;28;20828;-72
2023/08/25 06:03:42;;;;;;;8.47;5.03;;;;;;;21.81;68.04;100227.19;4966809;28;21500;-71
2023/08/25 06:06:08;;;;;;;5.57;4.60;;;;;;;21.91;68.44;100237.00;4997679;28;21487;-71
2023/08/25 06:08:36;;;;;;;7.03;4.40;;;;;;;22.02;67.70;100226.06;4995577;28;20235;-71
2023/08/25 06:11:03;;;;;;;5.20;4.70;;;;;;;22.13;67.38;100229.31;4995337;28;20211;-71
2023/08/25 06:13:29;;;;;;;6.77;4.90;;;;;;;22.23;67.52;100225.69;4995782;28;20226;-72
2023/08/25 06:15:57;;;;;;;5.43;4.53;;;;;;;22.32;67.03;100224.00;4994927;28;20217;-71
2023/08/25 06:18:23;;;;;;;4.80;4.30;;;;;;;22.43;67.33;100224.56;4995069;28;20229;-72
2023/08/25 06:20:51;;;;;;;6.70;4.43;;;;;;;22.52;67.36;100227.50;4994244;28;20238;-72
2023/08/25 06:23:17;;;;;;;5.80;4.40;;;;;;;22.63;66.25;100233.41;4995857;28;20895;-71
2023/08/25 06:25:44;;;;;;;4.67;4.27;;;;;;;22.74;66.27;100231.28;4990024;28;20218;-71
2023/08/25 06:28:10;;;;;;;5.20;4.27;;;;;;;22.81;66.49;100228.44;4992082;28;20614;-72
2023/08/25 06:30:37;;;;;;;5.70;4.60;;;;;;;22.92;66.03;100226.28;4995014;28;20693;-72
2023/08/25 06:33:05;;;;;;;4.90;4.30;;;;;;;23.00;65.99;100221.50;4993160;28;20215;-72
2023/08/25 06:35:31;;;;;;;6.90;4.50;;;;;;;23.12;65.37;100231.66;4994367;28;20638;-72
2023/08/25 06:37:57;;;;;;;5.68;4.15;;;;;;;23.19;66.13;100229.56;4994105;28;20553;-72
2023/08/25 06:40:24;;;;;;;5.18;4.63;;;;;;;23.27;65.20;100230.94;4990939;28;20215;-72
2023/08/25 06:42:50;;;;;;;4.47;4.07;;;;;;;23.37;65.11;100225.72;4992385;28;20203;-71
2023/08/25 06:45:17;;;;;;;5.90;4.00;;;;;;;23.47;64.62;100227.44;4996128;28;20206;-72
2023/08/25 06:47:45;;;;;;;5.50;4.45;;;;;;;23.55;64.95;100221.44;4996310;28;20218;-73
2023/08/25 06:50:14;;;;;;;5.05;4.28;;;;;;;23.65;64.75;100234.66;4994923;28;20203;-72
2023/08/25 06:52:40;;;;;;;4.55;4.15;;;;;;;23.74;64.52;100239.50;4991925;28;20651;-72
2023/08/25 06:55:07;;;;;;;4.95;3.58;;;;;;;23.85;63.71;100239.97;4993464;28;20214;-73
2023/08/25 06:57:34;;;;;;;6.20;4.10;;;;;;;23.93;63.37;100237.91;4993895;28;20231;-72
2023/08/25 07:00:00;;;;;;;6.05;4.03;;;;;;;24.03;62.84;100247.66;4993992;28;21000;-72
2023/08/25 07:02:27;;;;;;;6.30;3.75;;;;;;;24.13;62.46;100244.69;4991816;28;21255;-73
2023/08/25 07:04:53;;;;;;;4.13;3.58;;;;;;;24.22;62.28;100252.94;4993019;28;20207;-72
2023/08/25 07:07:26;;;;;;;6.07;4.38;;;;;;;24.36;60.70;100246.41;4995578;28;20775;-73
2023/08/25 07:09:53;;;;;;;6.65;3.50;;;;;;;24.44;60.56;100245.78;4993831;28;20230;-71
2023/08/25 07:12:19;;;;;;;4.82;3.28;;;;;;;24.50;60.40;100243.34;4994982;28;20835;-72
2023/08/25 07:14:46;;;;;;;5.38;4.15;;;;;;;24.60;60.38;100251.16;4991158;28;20218;-72
2023/08/25 07:17:13;;;;;;;8.68;3.85;;;;;;;24.68;59.40;100247.09;4992760;28;21390;-72
2023/08/25 07:19:39;;;;;;;5.30;3.67;;;;;;;24.75;58.75;100249.59;4992165;28;20238;-73
2023/08/25 07:22:05;;;;;;;5.20;3.38;;;;;;;24.83;59.12;100250.16;4993893;28;20214;-72
2023/08/25 07:24:33;;;;;;;8.60;3.80;;;;;;;24.90;58.35;100248.00;4994296;28;20208;-72
2023/08/25 07:27:00;;;;;;;4.80;3.72;;;;;;;24.99;57.57;100250.06;4992866;28;20207;-73
2023/08/25 07:29:26;;;;;;;5.00;3.90;;;;;;;25.06;57.95;100257.97;4994762;28;21558;-72
2023/08/25 07:31:53;;;;;;;5.97;4.32;;;;;;;25.14;58.76;100256.56;4995692;28;20741;-72
2023/08/25 07:34:19;;;;;;;6.22;3.63;;;;;;;25.24;57.11;100252.81;4991944;28;20810;-73
2023/08/25 07:36:45;;;;;;;8.77;4.00;;;;;;;25.30;58.26;100256.50;4994033;28;20605;-72
2023/08/25 07:39:12;;;;;;;9.52;4.47;;;;;;;25.38;56.72;100255.13;4994557;28;20223;-72
2023/08/25 07:41:39;;;;;;;4.20;3.80;;;;;;;25.46;57.20;100251.75;4978136;28;20379;-72
2023/08/25 07:44:08;;;;;;;4.78;3.35;;;;;;;25.53;56.88;100250.78;4997113;28;20589;-72
2023/08/25 07:46:37;;;;;;;6.50;3.75;;;;;;;25.61;57.49;100244.72;4998388;28;20465;-73
2023/08/25 07:49:04;;;;;;;4.30;3.58;;;;;;;25.70;56.86;100255.63;4997007;28;20223;-72
2023/08/25 07:51:31;;;;;;;7.35;3.60;;;;;;;25.79;55.57;100254.97;4999208;28;21001;-72
2023/08/25 07:53:58;;;;;;;4.35;3.85;;;;;;;25.87;55.01;100261.66;4996505;28;20238;-73
2023/08/25 07:56:24;;;;;;;6.68;3.95;;;;;;;25.92;56.31;100255.72;4996340;28;20222;-72
2023/08/25 07:58:53;;;;;;;6.22;3.70;;;;;;;26.00;55.87;100254.31;4995368;28;20820;-72
2023/08/25 08:01:19;;;;;;;5.57;3.80;;;;;;;26.07;55.38;100254.84;4995899;28;21278;-72
2023/08/25 08:03:45;;;;;;;6.35;3.97;;;;;;;26.13;55.26;100261.19;4997645;28;20222;-72
2023/08/25 08:06:12;;;;;;;7.32;3.67;;;;;;;26.22;54.61;100269.38;4997548;28;20238;-73
2023/08/25 08:08:38;;;;;;;4.30;3.70;;;;;;;26.31;54.37;100276.84;4996314;28;20238;-72
2023/08/25 08:11:05;;;;;;;5.45;3.78;;;;;;;26.38;54.84;100282.78;4993561;28;20211;-73
2023/08/25 08:13:31;;;;;;;6.78;3.60;;;;;;;26.47;54.44;100272.00;4995066;28;20216;-72
2023/08/25 08:15:59;;;;;;;5.18;3.55;;;;;;;26.56;53.97;100271.34;4997825;28;20210;-72
2023/08/25 08:18:25;;;;;;;4.22;3.83;;;;;;;26.60;54.55;100274.69;4996715;28;20359;-72
2023/08/25 08:20:52;;;;;;;7.00;4.10;;;;;;;26.69;54.23;100269.34;4996591;28;20678;-72
2023/08/25 08:23:18;;;;;;;4.50;3.90;;;;;;;26.74;54.84;100283.06;4993018;28;20484;-73
2023/08/25 08:25:44;;;;;;;5.13;3.55;;;;;;;26.81;54.60;100271.97;4994020;28;20211;-72
2023/08/25 08:28:11;;;;;;;5.45;4.05;;;;;;;26.87;54.23;100278.31;4994254;28;20285;-72
2023/08/25 08:30:37;;;;;;;5.78;3.80;;;;;;;26.93;53.93;100278.53;4997717;28;20207;-72
2023/08/25 08:33:05;;;;;;;4.45;3.90;;;;;;;26.98;54.29;100284.13;4997704;28;20233;-72
2023/08/25 08:35:32;;;;;;;4.82;4.00;;;;;;;27.06;53.70;100290.81;4995309;28;21692;-72
2023/08/25 08:37:58;;;;;;;5.43;3.58;;;;;;;27.13;52.73;100298.66;4994395;28;20318;-73
2023/08/25 08:40:24;;;;;;;5.03;4.25;;;;;;;27.21;52.81;100299.94;4995281;28;20222;-72
2023/08/25 08:42:54;;;;;;;3.92;3.55;;;;;;;27.29;53.85;100311.28;4996164;28;20207;-73
2023/08/25 08:45:24;;;;;;;3.75;3.45;;;;;;;27.36;52.39;100297.44;4993283;28;21336;-73
2023/08/25 08:47:51;;;;;;;6.38;3.72;;;;;;;27.43;53.32;100294.47;4995955;28;20786;-72
2023/08/25 08:50:18;;;;;;;4.15;3.40;;;;;;;27.50;52.99;100305.06;4994836;28;20203;-72
2023/08/25 08:52:47;;;;;;;5.63;3.60;;;;;;;27.57;52.77;100300.09;4995805;28;21717;-72
2023/08/25 08:55:15;;;;;;;5.22;4.00;;;;;;;27.67;52.40;100290.03;4992588;28;20211;-71
2023/08/25 08:57:43;;;;;;;4.88;3.83;;;;;;;27.76;52.19;100287.34;4996052;28;20231;-72
2023/08/25 09:00:12;;;;;;;4.00;3.60;;;;;;;27.82;51.38;100291.75;4971150;28;20211;-72
2023/08/25 09:02:41;;;;;;;4.88;3.60;;;;;;;27.90;52.60;100292.22;4995396;28;20211;-73
2023/08/25 09:05:11;;;;;;;4.70;3.50;;;;;;;27.98;50.70;100293.44;4992117;28;21573;-73
2023/08/25 09:07:40;;;;;;;5.18;4.10;;;;;;;28.07;50.68;100296.19;4995126;28;20820;-73
2023/08/25 09:10:10;;;;;;;4.82;4.05;;;;;;;28.14;51.97;100296.66;4994256;28;20215;-72
2023/08/25 09:12:36;;;;;;;7.35;4.05;;;;;;;28.24;51.43;100295.47;4996498;28;20345;-72
2023/08/25 09:15:03;;;;;;;4.55;3.53;;;;;;;28.34;51.10;100301.63;4993501;28;20207;-71
2023/08/25 09:17:30;;;;;;;6.30;3.70;;;;;;;28.45;51.95;100315.56;4993886;28;20265;-72
2023/08/25 09:20:04;;;;;;;5.43;3.58;;;;;;;28.58;50.37;100308.03;4994326;28;20231;-71
2023/08/25 09:22:31;;;;;;;11.75;4.13;;;;;;;28.67;50.27;100306.03;4993523;28;20214;-72
2023/08/25 09:25:00;;;;;;;4.53;3.88;;;;;;;28.76;50.58;100303.31;4994294;28;20199;-73
2023/08/25 09:27:27;;;;;;;4.80;3.45;;;;;;;28.84;50.53;100320.81;4977733;28;20218;-73
2023/08/25 09:30:04;;;;;;;8.13;4.05;;;;;;;28.87;50.21;100311.75;4996370;28;20222;-73
2023/08/25 09:32:30;;;;;;;5.95;3.70;;;;;;;28.93;48.93;100315.38;4994705;28;20434;-73
2023/08/25 09:35:11;;;;;;;6.93;3.90;;;;;;;29.03;48.62;100313.41;4990819;28;20207;-72
2023/08/25 09:37:41;;;;;;;5.18;3.85;;;;;;;29.10;49.76;100299.50;4990457;28;20227;-73
2023/08/25 09:40:11;;;;;;;4.88;4.05;;;;;;;29.13;49.07;100312.94;4995715;28;20503;-72
2023/08/25 09:42:38;;;;;;;4.22;3.58;;;;;;;29.20;50.06;100320.75;4993877;28;20478;-72
2023/08/25 09:45:05;;;;;;;5.85;4.30;;;;;;;29.27;48.50;100325.88;4994159;28;20207;-72
2023/08/25 09:47:32;;;;;;;9.82;4.40;;;;;;;29.31;49.25;100342.06;4995901;28;20919;-73
2023/08/25 09:49:59;;;;;;;4.85;3.88;;;;;;;29.35;48.66;100332.50;4975545;28;20218;-72
2023/08/25 09:52:27;;;;;;;4.20;3.80;;;;;;;29.39;48.54;100324.19;4994471;28;21251;-72
2023/08/25 09:54:53;;;;;;;4.07;3.58;;;;;;;29.43;48.38;100322.06;4996336;28;20322;-72
2023/08/25 09:57:22;;;;;;;4.65;3.78;;;;;;;29.50;49.62;100327.91;4994200;28;20212;-72
2023/08/25 09:59:48;;;;;;;5.28;3.65;;;;;;;29.59;48.38;100329.88;4992426;28;20231;-72
2023/08/25 10:02:16;;;;;;;5.10;3.97;;;;;;;29.70;47.43;100332.84;4993462;28;20597;-72
2023/08/25 10:04:43;;;;;;;5.60;4.00;;;;;;;29.81;45.56;100331.13;4993298;28;20579;-72
2023/08/25 10:07:10;;;;;;;7.03;3.38;;;;;;;29.90;47.13;100330.31;4981124;28;20426;-73
2023/08/25 10:09:37;;;;;;;7.10;3.60;;;;;;;30.00;46.71;100338.00;4993061;28;20231;-72
2023/08/25 10:12:07;;;;;;;5.40;4.30;;;;;;;30.09;47.36;100350.81;4993082;28;20209;-72
2023/08/25 10:14:38;;;;;;;7.57;3.70;;;;;;;30.21;47.91;100350.59;4994652;28;20223;-72
2023/08/25 10:17:07;;;;;;;6.38;3.88;;;;;;;30.30;47.16;100347.78;4994601;28;20203;-73
2023/08/25 10:19:38;;;;;;;4.43;3.35;;;;;;;30.43;46.88;100342.09;4993329;28;20308;-72
2023/08/25 10:22:07;;;;;;;5.05;3.63;;;;;;;30.51;45.01;100340.53;4996325;28;20286;-72
2023/08/25 10:24:35;;;;;;;5.68;4.03;;;;;;;30.57;44.96;100344.88;4993405;28;20214;-73
2023/08/25 10:27:02;;;;;;;6.43;3.70;;;;;;;30.63;46.15;100337.56;4994046;28;20214;-73
2023/08/25 10:29:29;;;;;;;6.57;3.95;;;;;;;30.66;44.19;100341.34;4993987;28;20238;-73
2023/08/25 10:32:00;;;;;;;4.10;3.80;;;;;;;30.68;45.07;100347.09;4992998;28;20211;-72
2023/08/25 10:34:31;;;;;;;4.88;3.72;;;;;;;30.66;44.62;100347.53;4992015;28;21121;-73
2023/08/25 10:37:04;;;;;;;6.65;4.00;;;;;;;30.69;45.73;100343.13;4978689;28;21491;-73
2023/08/25 10:39:46;;;;;;;4.55;3.50;;;;;;;30.67;44.67;100346.34;4992708;28;20247;-72
2023/08/25 10:42:12;;;;;;;5.53;3.70;;;;;;;30.67;44.23;100343.63;4990506;28;20207;-72
2023/08/25 10:44:39;;;;;;;4.90;3.58;;;;;;;30.67;45.12;100349.06;4971044;28;20294;-73
2023/08/25 10:47:08;;;;;;;4.22;3.83;;;;;;;30.69;44.99;100359.50;4992730;28;20255;-73
2023/08/25 10:49:38;;;;;;;6.00;3.88;;;;;;;30.69;45.47;100357.53;4990572;28;21900;-72
2023/08/25 10:52:15;;;;;;;6.97;3.70;;;;;;;30.76;46.17;100364.59;4990560;28;20204;-73
2023/08/25 10:54:42;;;;;;;3.75;3.38;;;;;;;30.82;46.03;100358.00;4990472;28;22398;-73
2023/08/25 10:57:39;;;;;;;5.15;3.80;;;;;;;30.88;44.29;100358.88;4991773;28;20215;-73
2023/08/25 11:00:24;;;;;;;4.22;3.25;;;;;;;30.91;43.84;100347.03;4994139;28;20211;-72
2023/08/25 11:02:52;;;;;;;6.00;3.58;;;;;;;30.86;41.71;100344.94;4994066;28;21471;-73
2023/08/25 11:05:38;;;;;;;4.43;3.22;;;;;;;30.91;42.90;100338.84;4992232;28;20302;-73
2023/08/25 11:08:22;;;;;;;6.05;3.97;;;;;;;30.85;42.78;100343.44;4990980;28;20219;-71
2023/08/25 11:10:48;;;;;;;5.32;3.00;;;;;;;30.89;42.88;100344.03;4992397;28;21176;-72
2023/08/25 11:13:16;;;;;;;5.53;3.10;;;;;;;30.90;43.28;100344.75;4978900;28;20324;-73
2023/08/25 11:15:42;;;;;;;5.43;3.20;;;;;;;30.84;41.86;100341.19;4992174;28;20677;-72
2023/08/25 11:18:10;;;;;;;4.18;3.50;;;;;;;30.88;42.02;100355.38;4991773;28;20231;-72
2023/08/25 11:20:44;;;;;;;6.03;3.50;;;;;;;30.92;42.94;100361.41;4993237;28;20432;-72
2023/08/25 11:23:10;;;;;;;3.92;3.40;;;;;;;30.99;44.44;100359.06;4993640;28;20215;-72
2023/08/25 11:25:37;;;;;;;5.45;3.50;;;;;;;31.04;43.18;100366.59;4992700;28;21292;-73
2023/08/25 11:28:04;;;;;;;6.57;3.55;;;;;;;31.04;41.57;100363.88;4983663;28;20250;-72